<?xml version="1.0" encoding="UTF-8" standalone="no" ?>
<gpx xmlns="http://www.topografix.com/GPX/1/1" xmlns:xsi="http://www.w3.org/2001/XMLSchema-instance" xsi:schemaLocation="http://www.topografix.com/GPX/1/1 http://www.topografix.com/GPX/1/1/gpx.xsd" version="1.1" creator="VisuGPX - https://www.visugpx.com">
  <metadata>
    <name>Sortie 02/03/16</name>
    <desc><![CDATA[////////////////////////////////////]]></desc>
  </metadata>
  <trk>
    <name><![CDATA[TR211-Autour du boulot (ac Aurélien)]]></name>
    <trkseg>
      <trkpt lat="45.7863" lon="4.85477">
        <ele>167.4</ele>
        <time>2016-03-01T11:23:37Z</time>
      </trkpt>
      <trkpt lat="45.78639" lon="4.85476">
        <ele>167.2</ele>
        <time>2016-03-01T11:23:42Z</time>
      </trkpt>
      <trkpt lat="45.78653" lon="4.85474">
        <ele>166.9</ele>
        <time>2016-03-01T11:23:48Z</time>
      </trkpt>
      <trkpt lat="45.78669" lon="4.85471">
        <ele>166.6</ele>
        <time>2016-03-01T11:23:54Z</time>
      </trkpt>
      <trkpt lat="45.78687" lon="4.85468">
        <ele>166.3</ele>
        <time>2016-03-01T11:24:01Z</time>
      </trkpt>
      <trkpt lat="45.78701" lon="4.85463">
        <ele>166.1</ele>
        <time>2016-03-01T11:24:07Z</time>
      </trkpt>
      <trkpt lat="45.78717" lon="4.8546">
        <ele>166</ele>
        <time>2016-03-01T11:24:13Z</time>
      </trkpt>
      <trkpt lat="45.78734" lon="4.85456">
        <ele>166</ele>
        <time>2016-03-01T11:24:19Z</time>
      </trkpt>
      <trkpt lat="45.78751" lon="4.85452">
        <ele>166.1</ele>
        <time>2016-03-01T11:24:25Z</time>
      </trkpt>
      <trkpt lat="45.78772" lon="4.85447">
        <ele>166.2</ele>
        <time>2016-03-01T11:24:32Z</time>
      </trkpt>
      <trkpt lat="45.78789" lon="4.85443">
        <ele>166.4</ele>
        <time>2016-03-01T11:24:38Z</time>
      </trkpt>
      <trkpt lat="45.78807" lon="4.85442">
        <ele>168.3</ele>
        <time>2016-03-01T11:24:44Z</time>
      </trkpt>
      <trkpt lat="45.78813" lon="4.85445">
        <ele>169</ele>
        <time>2016-03-01T11:24:46Z</time>
      </trkpt>
      <trkpt lat="45.78816" lon="4.8546">
        <ele>169.2</ele>
        <time>2016-03-01T11:24:50Z</time>
      </trkpt>
      <trkpt lat="45.78815" lon="4.85492">
        <ele>168.4</ele>
        <time>2016-03-01T11:24:57Z</time>
      </trkpt>
      <trkpt lat="45.78813" lon="4.85514">
        <ele>167.7</ele>
        <time>2016-03-01T11:25:02Z</time>
      </trkpt>
      <trkpt lat="45.78809" lon="4.85539">
        <ele>166.5</ele>
        <time>2016-03-01T11:25:08Z</time>
      </trkpt>
      <trkpt lat="45.78807" lon="4.85567">
        <ele>166.6</ele>
        <time>2016-03-01T11:25:14Z</time>
      </trkpt>
      <trkpt lat="45.78804" lon="4.85594">
        <ele>166.7</ele>
        <time>2016-03-01T11:25:20Z</time>
      </trkpt>
      <trkpt lat="45.78798" lon="4.85617">
        <ele>166.4</ele>
        <time>2016-03-01T11:25:25Z</time>
      </trkpt>
      <trkpt lat="45.78792" lon="4.85641">
        <ele>166</ele>
        <time>2016-03-01T11:25:31Z</time>
      </trkpt>
      <trkpt lat="45.78789" lon="4.85658">
        <ele>166</ele>
        <time>2016-03-01T11:25:35Z</time>
      </trkpt>
      <trkpt lat="45.78785" lon="4.85684">
        <ele>166</ele>
        <time>2016-03-01T11:25:41Z</time>
      </trkpt>
      <trkpt lat="45.78781" lon="4.85711">
        <ele>166</ele>
        <time>2016-03-01T11:25:47Z</time>
      </trkpt>
      <trkpt lat="45.78777" lon="4.85734">
        <ele>166</ele>
        <time>2016-03-01T11:25:52Z</time>
      </trkpt>
      <trkpt lat="45.78772" lon="4.85767">
        <ele>166</ele>
        <time>2016-03-01T11:25:59Z</time>
      </trkpt>
      <trkpt lat="45.78768" lon="4.8579">
        <ele>166</ele>
        <time>2016-03-01T11:26:04Z</time>
      </trkpt>
      <trkpt lat="45.78767" lon="4.85813">
        <ele>166</ele>
        <time>2016-03-01T11:26:09Z</time>
      </trkpt>
      <trkpt lat="45.78767" lon="4.85844">
        <ele>166</ele>
        <time>2016-03-01T11:26:16Z</time>
      </trkpt>
      <trkpt lat="45.78768" lon="4.85876">
        <ele>166</ele>
        <time>2016-03-01T11:26:23Z</time>
      </trkpt>
      <trkpt lat="45.78768" lon="4.85903">
        <ele>166</ele>
        <time>2016-03-01T11:26:29Z</time>
      </trkpt>
      <trkpt lat="45.78766" lon="4.8593">
        <ele>166</ele>
        <time>2016-03-01T11:26:35Z</time>
      </trkpt>
      <trkpt lat="45.78766" lon="4.85957">
        <ele>166</ele>
        <time>2016-03-01T11:26:41Z</time>
      </trkpt>
      <trkpt lat="45.78768" lon="4.85974">
        <ele>166</ele>
        <time>2016-03-01T11:26:45Z</time>
      </trkpt>
      <trkpt lat="45.78761" lon="4.85998">
        <ele>166</ele>
        <time>2016-03-01T11:26:51Z</time>
      </trkpt>
      <trkpt lat="45.78764" lon="4.86006">
        <ele>166</ele>
        <time>2016-03-01T11:26:54Z</time>
      </trkpt>
      <trkpt lat="45.78764" lon="4.86019">
        <ele>166</ele>
        <time>2016-03-01T11:26:57Z</time>
      </trkpt>
      <trkpt lat="45.78761" lon="4.86044">
        <ele>166</ele>
        <time>2016-03-01T11:27:02Z</time>
      </trkpt>
      <trkpt lat="45.78759" lon="4.86049">
        <ele>166</ele>
        <time>2016-03-01T11:27:03Z</time>
      </trkpt>
      <trkpt lat="45.78755" lon="4.86079">
        <ele>166</ele>
        <time>2016-03-01T11:27:09Z</time>
      </trkpt>
      <trkpt lat="45.78754" lon="4.86118">
        <ele>166</ele>
        <time>2016-03-01T11:27:17Z</time>
      </trkpt>
      <trkpt lat="45.78753" lon="4.86151">
        <ele>166</ele>
        <time>2016-03-01T11:27:24Z</time>
      </trkpt>
      <trkpt lat="45.78752" lon="4.86179">
        <ele>166</ele>
        <time>2016-03-01T11:27:30Z</time>
      </trkpt>
      <trkpt lat="45.78753" lon="4.86202">
        <ele>166</ele>
        <time>2016-03-01T11:27:35Z</time>
      </trkpt>
      <trkpt lat="45.78755" lon="4.86229">
        <ele>166</ele>
        <time>2016-03-01T11:27:41Z</time>
      </trkpt>
      <trkpt lat="45.78758" lon="4.86257">
        <ele>166</ele>
        <time>2016-03-01T11:27:47Z</time>
      </trkpt>
      <trkpt lat="45.78761" lon="4.86289">
        <ele>166</ele>
        <time>2016-03-01T11:27:54Z</time>
      </trkpt>
      <trkpt lat="45.78764" lon="4.86315">
        <ele>166</ele>
        <time>2016-03-01T11:28:00Z</time>
      </trkpt>
      <trkpt lat="45.78767" lon="4.86338">
        <ele>166</ele>
        <time>2016-03-01T11:28:05Z</time>
      </trkpt>
      <trkpt lat="45.78769" lon="4.86361">
        <ele>166</ele>
        <time>2016-03-01T11:28:10Z</time>
      </trkpt>
      <trkpt lat="45.78771" lon="4.86383">
        <ele>166</ele>
        <time>2016-03-01T11:28:15Z</time>
      </trkpt>
      <trkpt lat="45.78774" lon="4.86406">
        <ele>166</ele>
        <time>2016-03-01T11:28:20Z</time>
      </trkpt>
      <trkpt lat="45.78777" lon="4.86433">
        <ele>166</ele>
        <time>2016-03-01T11:28:26Z</time>
      </trkpt>
      <trkpt lat="45.7878" lon="4.86447">
        <ele>166</ele>
        <time>2016-03-01T11:28:29Z</time>
      </trkpt>
      <trkpt lat="45.7878" lon="4.86447">
        <ele>166</ele>
        <time>2016-03-01T11:28:29Z</time>
      </trkpt>
      <trkpt lat="45.78781" lon="4.86456">
        <ele>166</ele>
        <time>2016-03-01T11:28:31Z</time>
      </trkpt>
      <trkpt lat="45.78785" lon="4.86479">
        <ele>166</ele>
        <time>2016-03-01T11:28:36Z</time>
      </trkpt>
      <trkpt lat="45.78791" lon="4.86497">
        <ele>166</ele>
        <time>2016-03-01T11:28:40Z</time>
      </trkpt>
      <trkpt lat="45.78797" lon="4.86514">
        <ele>166.3</ele>
        <time>2016-03-01T11:28:44Z</time>
      </trkpt>
      <trkpt lat="45.78806" lon="4.86541">
        <ele>166.8</ele>
        <time>2016-03-01T11:28:50Z</time>
      </trkpt>
      <trkpt lat="45.78816" lon="4.86566">
        <ele>167.1</ele>
        <time>2016-03-01T11:28:56Z</time>
      </trkpt>
      <trkpt lat="45.78827" lon="4.8659">
        <ele>167.2</ele>
        <time>2016-03-01T11:29:02Z</time>
      </trkpt>
      <trkpt lat="45.78837" lon="4.8661">
        <ele>166.9</ele>
        <time>2016-03-01T11:29:07Z</time>
      </trkpt>
      <trkpt lat="45.78848" lon="4.86629">
        <ele>166.6</ele>
        <time>2016-03-01T11:29:12Z</time>
      </trkpt>
      <trkpt lat="45.78858" lon="4.86648">
        <ele>166.6</ele>
        <time>2016-03-01T11:29:17Z</time>
      </trkpt>
      <trkpt lat="45.78869" lon="4.86671">
        <ele>166.4</ele>
        <time>2016-03-01T11:29:23Z</time>
      </trkpt>
      <trkpt lat="45.78877" lon="4.8669">
        <ele>166.3</ele>
        <time>2016-03-01T11:29:28Z</time>
      </trkpt>
      <trkpt lat="45.78882" lon="4.86701">
        <ele>166.5</ele>
        <time>2016-03-01T11:29:31Z</time>
      </trkpt>
      <trkpt lat="45.78896" lon="4.86722">
        <ele>167.2</ele>
        <time>2016-03-01T11:29:37Z</time>
      </trkpt>
      <trkpt lat="45.78904" lon="4.86737">
        <ele>167.5</ele>
        <time>2016-03-01T11:29:41Z</time>
      </trkpt>
      <trkpt lat="45.78916" lon="4.86761">
        <ele>167.8</ele>
        <time>2016-03-01T11:29:47Z</time>
      </trkpt>
      <trkpt lat="45.78927" lon="4.86779">
        <ele>168</ele>
        <time>2016-03-01T11:29:52Z</time>
      </trkpt>
      <trkpt lat="45.78936" lon="4.86797">
        <ele>168</ele>
        <time>2016-03-01T11:29:57Z</time>
      </trkpt>
      <trkpt lat="45.78947" lon="4.86819">
        <ele>167.7</ele>
        <time>2016-03-01T11:30:03Z</time>
      </trkpt>
      <trkpt lat="45.78955" lon="4.86833">
        <ele>167.5</ele>
        <time>2016-03-01T11:30:07Z</time>
      </trkpt>
      <trkpt lat="45.78962" lon="4.86848">
        <ele>167.1</ele>
        <time>2016-03-01T11:30:11Z</time>
      </trkpt>
      <trkpt lat="45.7897" lon="4.86865">
        <ele>167</ele>
        <time>2016-03-01T11:30:16Z</time>
      </trkpt>
      <trkpt lat="45.78981" lon="4.86885">
        <ele>167.4</ele>
        <time>2016-03-01T11:30:22Z</time>
      </trkpt>
      <trkpt lat="45.78991" lon="4.86906">
        <ele>168</ele>
        <time>2016-03-01T11:30:28Z</time>
      </trkpt>
      <trkpt lat="45.78995" lon="4.86913">
        <ele>168.2</ele>
        <time>2016-03-01T11:30:30Z</time>
      </trkpt>
      <trkpt lat="45.79008" lon="4.86942">
        <ele>169</ele>
        <time>2016-03-01T11:30:37Z</time>
      </trkpt>
      <trkpt lat="45.79016" lon="4.86966">
        <ele>169.1</ele>
        <time>2016-03-01T11:30:43Z</time>
      </trkpt>
      <trkpt lat="45.79018" lon="4.86984">
        <ele>168.5</ele>
        <time>2016-03-01T11:30:47Z</time>
      </trkpt>
      <trkpt lat="45.79021" lon="4.87007">
        <ele>167.6</ele>
        <time>2016-03-01T11:30:52Z</time>
      </trkpt>
      <trkpt lat="45.79023" lon="4.87031">
        <ele>166.5</ele>
        <time>2016-03-01T11:30:57Z</time>
      </trkpt>
      <trkpt lat="45.79028" lon="4.87059">
        <ele>166</ele>
        <time>2016-03-01T11:31:03Z</time>
      </trkpt>
      <trkpt lat="45.79034" lon="4.87085">
        <ele>166</ele>
        <time>2016-03-01T11:31:09Z</time>
      </trkpt>
      <trkpt lat="45.79042" lon="4.8711">
        <ele>166</ele>
        <time>2016-03-01T11:31:13Z</time>
      </trkpt>
      <trkpt lat="45.79049" lon="4.8713">
        <ele>166.7</ele>
        <time>2016-03-01T11:31:18Z</time>
      </trkpt>
      <trkpt lat="45.79061" lon="4.87153">
        <ele>167.4</ele>
        <time>2016-03-01T11:31:24Z</time>
      </trkpt>
      <trkpt lat="45.79072" lon="4.87176">
        <ele>167.8</ele>
        <time>2016-03-01T11:31:30Z</time>
      </trkpt>
      <trkpt lat="45.79083" lon="4.87195">
        <ele>167.9</ele>
        <time>2016-03-01T11:31:35Z</time>
      </trkpt>
      <trkpt lat="45.79097" lon="4.87216">
        <ele>167.7</ele>
        <time>2016-03-01T11:31:41Z</time>
      </trkpt>
      <trkpt lat="45.79109" lon="4.87232">
        <ele>167.5</ele>
        <time>2016-03-01T11:31:46Z</time>
      </trkpt>
      <trkpt lat="45.7912" lon="4.87248">
        <ele>167.1</ele>
        <time>2016-03-01T11:31:51Z</time>
      </trkpt>
      <trkpt lat="45.79135" lon="4.87266">
        <ele>167.2</ele>
        <time>2016-03-01T11:31:57Z</time>
      </trkpt>
      <trkpt lat="45.79152" lon="4.87287">
        <ele>168.1</ele>
        <time>2016-03-01T11:32:04Z</time>
      </trkpt>
      <trkpt lat="45.79168" lon="4.87303">
        <ele>169.4</ele>
        <time>2016-03-01T11:32:10Z</time>
      </trkpt>
      <trkpt lat="45.79184" lon="4.87322">
        <ele>170.2</ele>
        <time>2016-03-01T11:32:16Z</time>
      </trkpt>
      <trkpt lat="45.79198" lon="4.87341">
        <ele>170.3</ele>
        <time>2016-03-01T11:32:22Z</time>
      </trkpt>
      <trkpt lat="45.79211" lon="4.87362">
        <ele>169.9</ele>
        <time>2016-03-01T11:32:28Z</time>
      </trkpt>
      <trkpt lat="45.79221" lon="4.87381">
        <ele>169.7</ele>
        <time>2016-03-01T11:32:33Z</time>
      </trkpt>
      <trkpt lat="45.79231" lon="4.87404">
        <ele>169.4</ele>
        <time>2016-03-01T11:32:39Z</time>
      </trkpt>
      <trkpt lat="45.79245" lon="4.87432">
        <ele>169</ele>
        <time>2016-03-01T11:32:46Z</time>
      </trkpt>
      <trkpt lat="45.79259" lon="4.87451">
        <ele>168.8</ele>
        <time>2016-03-01T11:32:52Z</time>
      </trkpt>
      <trkpt lat="45.79273" lon="4.87468">
        <ele>168.7</ele>
        <time>2016-03-01T11:32:58Z</time>
      </trkpt>
      <trkpt lat="45.79286" lon="4.87487">
        <ele>168.4</ele>
        <time>2016-03-01T11:33:04Z</time>
      </trkpt>
      <trkpt lat="45.79286" lon="4.87487">
        <ele>168.4</ele>
        <time>2016-03-01T11:33:04Z</time>
      </trkpt>
      <trkpt lat="45.79296" lon="4.87505">
        <ele>168</ele>
        <time>2016-03-01T11:33:09Z</time>
      </trkpt>
      <trkpt lat="45.79306" lon="4.87521">
        <ele>168</ele>
        <time>2016-03-01T11:33:14Z</time>
      </trkpt>
      <trkpt lat="45.7932" lon="4.87542">
        <ele>168.1</ele>
        <time>2016-03-01T11:33:20Z</time>
      </trkpt>
      <trkpt lat="45.79333" lon="4.87558">
        <ele>168.6</ele>
        <time>2016-03-01T11:33:25Z</time>
      </trkpt>
      <trkpt lat="45.79345" lon="4.87573">
        <ele>168.8</ele>
        <time>2016-03-01T11:33:30Z</time>
      </trkpt>
      <trkpt lat="45.79358" lon="4.87582">
        <ele>169</ele>
        <time>2016-03-01T11:33:34Z</time>
      </trkpt>
      <trkpt lat="45.79366" lon="4.87589">
        <ele>168.9</ele>
        <time>2016-03-01T11:33:38Z</time>
      </trkpt>
      <trkpt lat="45.79377" lon="4.87597">
        <ele>168.7</ele>
        <time>2016-03-01T11:33:42Z</time>
      </trkpt>
      <trkpt lat="45.79393" lon="4.87609">
        <ele>168.3</ele>
        <time>2016-03-01T11:33:48Z</time>
      </trkpt>
      <trkpt lat="45.79412" lon="4.87623">
        <ele>168</ele>
        <time>2016-03-01T11:33:55Z</time>
      </trkpt>
      <trkpt lat="45.79429" lon="4.87636">
        <ele>168.1</ele>
        <time>2016-03-01T11:34:01Z</time>
      </trkpt>
      <trkpt lat="45.79445" lon="4.87648">
        <ele>168.2</ele>
        <time>2016-03-01T11:34:07Z</time>
      </trkpt>
      <trkpt lat="45.79461" lon="4.87661">
        <ele>168.2</ele>
        <time>2016-03-01T11:34:13Z</time>
      </trkpt>
      <trkpt lat="45.79477" lon="4.87674">
        <ele>168.4</ele>
        <time>2016-03-01T11:34:19Z</time>
      </trkpt>
      <trkpt lat="45.79494" lon="4.87686">
        <ele>168.2</ele>
        <time>2016-03-01T11:34:25Z</time>
      </trkpt>
      <trkpt lat="45.79511" lon="4.87697">
        <ele>167.8</ele>
        <time>2016-03-01T11:34:31Z</time>
      </trkpt>
      <trkpt lat="45.79526" lon="4.87705">
        <ele>167.3</ele>
        <time>2016-03-01T11:34:36Z</time>
      </trkpt>
      <trkpt lat="45.79543" lon="4.87711">
        <ele>167.1</ele>
        <time>2016-03-01T11:34:42Z</time>
      </trkpt>
      <trkpt lat="45.79555" lon="4.87716">
        <ele>168.3</ele>
        <time>2016-03-01T11:34:46Z</time>
      </trkpt>
      <trkpt lat="45.79569" lon="4.87725">
        <ele>169.5</ele>
        <time>2016-03-01T11:34:51Z</time>
      </trkpt>
      <trkpt lat="45.79585" lon="4.87732">
        <ele>170.7</ele>
        <time>2016-03-01T11:34:57Z</time>
      </trkpt>
      <trkpt lat="45.79604" lon="4.87734">
        <ele>172.1</ele>
        <time>2016-03-01T11:35:03Z</time>
      </trkpt>
      <trkpt lat="45.79619" lon="4.87743">
        <ele>172.7</ele>
        <time>2016-03-01T11:35:08Z</time>
      </trkpt>
      <trkpt lat="45.79637" lon="4.87756">
        <ele>174.1</ele>
        <time>2016-03-01T11:35:14Z</time>
      </trkpt>
      <trkpt lat="45.79648" lon="4.87771">
        <ele>174.5</ele>
        <time>2016-03-01T11:35:19Z</time>
      </trkpt>
      <trkpt lat="45.79659" lon="4.8779">
        <ele>173.7</ele>
        <time>2016-03-01T11:35:25Z</time>
      </trkpt>
      <trkpt lat="45.79661" lon="4.87792">
        <ele>173.7</ele>
        <time>2016-03-01T11:35:26Z</time>
      </trkpt>
      <trkpt lat="45.79672" lon="4.87777">
        <ele>177.5</ele>
        <time>2016-03-01T11:35:35Z</time>
      </trkpt>
      <trkpt lat="45.79684" lon="4.87763">
        <ele>181.7</ele>
        <time>2016-03-01T11:35:41Z</time>
      </trkpt>
      <trkpt lat="45.7969" lon="4.87757">
        <ele>183.7</ele>
        <time>2016-03-01T11:35:45Z</time>
      </trkpt>
      <trkpt lat="45.79694" lon="4.87753">
        <ele>185.1</ele>
        <time>2016-03-01T11:35:48Z</time>
      </trkpt>
      <trkpt lat="45.79694" lon="4.87751">
        <ele>185.6</ele>
        <time>2016-03-01T11:35:50Z</time>
      </trkpt>
      <trkpt lat="45.79702" lon="4.87746">
        <ele>188.2</ele>
        <time>2016-03-01T11:35:57Z</time>
      </trkpt>
      <trkpt lat="45.79709" lon="4.87745">
        <ele>189.7</ele>
        <time>2016-03-01T11:36:02Z</time>
      </trkpt>
      <trkpt lat="45.79713" lon="4.87745">
        <ele>190.7</ele>
        <time>2016-03-01T11:36:07Z</time>
      </trkpt>
      <trkpt lat="45.79717" lon="4.87745">
        <ele>191.5</ele>
        <time>2016-03-01T11:36:12Z</time>
      </trkpt>
      <trkpt lat="45.79721" lon="4.87744">
        <ele>192.6</ele>
        <time>2016-03-01T11:36:15Z</time>
      </trkpt>
      <trkpt lat="45.79728" lon="4.87745">
        <ele>194.1</ele>
        <time>2016-03-01T11:36:21Z</time>
      </trkpt>
      <trkpt lat="45.79735" lon="4.87744">
        <ele>195.9</ele>
        <time>2016-03-01T11:36:25Z</time>
      </trkpt>
      <trkpt lat="45.79741" lon="4.87744">
        <ele>197.3</ele>
        <time>2016-03-01T11:36:29Z</time>
      </trkpt>
      <trkpt lat="45.79746" lon="4.87743">
        <ele>198.5</ele>
        <time>2016-03-01T11:36:33Z</time>
      </trkpt>
      <trkpt lat="45.79758" lon="4.87743">
        <ele>201.3</ele>
        <time>2016-03-01T11:36:40Z</time>
      </trkpt>
      <trkpt lat="45.79765" lon="4.87743">
        <ele>202.9</ele>
        <time>2016-03-01T11:36:45Z</time>
      </trkpt>
      <trkpt lat="45.79772" lon="4.87744">
        <ele>204.3</ele>
        <time>2016-03-01T11:36:49Z</time>
      </trkpt>
      <trkpt lat="45.79777" lon="4.87743">
        <ele>205.5</ele>
        <time>2016-03-01T11:36:53Z</time>
      </trkpt>
      <trkpt lat="45.79786" lon="4.87743">
        <ele>207.9</ele>
        <time>2016-03-01T11:36:59Z</time>
      </trkpt>
      <trkpt lat="45.79795" lon="4.87747">
        <ele>208.8</ele>
        <time>2016-03-01T11:37:05Z</time>
      </trkpt>
      <trkpt lat="45.79803" lon="4.87757">
        <ele>208.2</ele>
        <time>2016-03-01T11:37:11Z</time>
      </trkpt>
      <trkpt lat="45.79808" lon="4.8776">
        <ele>208.4</ele>
        <time>2016-03-01T11:37:14Z</time>
      </trkpt>
      <trkpt lat="45.79822" lon="4.87765">
        <ele>209.5</ele>
        <time>2016-03-01T11:37:21Z</time>
      </trkpt>
      <trkpt lat="45.79833" lon="4.87769">
        <ele>210.3</ele>
        <time>2016-03-01T11:37:27Z</time>
      </trkpt>
      <trkpt lat="45.79839" lon="4.87769">
        <ele>211.1</ele>
        <time>2016-03-01T11:37:31Z</time>
      </trkpt>
      <trkpt lat="45.79855" lon="4.87757">
        <ele>213.7</ele>
        <time>2016-03-01T11:37:39Z</time>
      </trkpt>
      <trkpt lat="45.79858" lon="4.87754">
        <ele>214.2</ele>
        <time>2016-03-01T11:37:41Z</time>
      </trkpt>
      <trkpt lat="45.79866" lon="4.8775">
        <ele>215.1</ele>
        <time>2016-03-01T11:37:46Z</time>
      </trkpt>
      <trkpt lat="45.79867" lon="4.8775">
        <ele>215.3</ele>
        <time>2016-03-01T11:37:47Z</time>
      </trkpt>
      <trkpt lat="45.79881" lon="4.87755">
        <ele>216.2</ele>
        <time>2016-03-01T11:37:53Z</time>
      </trkpt>
      <trkpt lat="45.79897" lon="4.87759">
        <ele>216.9</ele>
        <time>2016-03-01T11:38:00Z</time>
      </trkpt>
      <trkpt lat="45.7991" lon="4.87759">
        <ele>217.6</ele>
        <time>2016-03-01T11:38:06Z</time>
      </trkpt>
      <trkpt lat="45.79917" lon="4.87758">
        <ele>217.9</ele>
        <time>2016-03-01T11:38:09Z</time>
      </trkpt>
      <trkpt lat="45.79931" lon="4.87757">
        <ele>218.6</ele>
        <time>2016-03-01T11:38:14Z</time>
      </trkpt>
      <trkpt lat="45.79943" lon="4.87755">
        <ele>219.2</ele>
        <time>2016-03-01T11:38:19Z</time>
      </trkpt>
      <trkpt lat="45.79964" lon="4.87748">
        <ele>220.5</ele>
        <time>2016-03-01T11:38:26Z</time>
      </trkpt>
      <trkpt lat="45.79979" lon="4.87744">
        <ele>221.6</ele>
        <time>2016-03-01T11:38:31Z</time>
      </trkpt>
      <trkpt lat="45.79992" lon="4.87739">
        <ele>222.8</ele>
        <time>2016-03-01T11:38:36Z</time>
      </trkpt>
      <trkpt lat="45.80006" lon="4.87731">
        <ele>224.1</ele>
        <time>2016-03-01T11:38:42Z</time>
      </trkpt>
      <trkpt lat="45.80015" lon="4.87726">
        <ele>225</ele>
        <time>2016-03-01T11:38:46Z</time>
      </trkpt>
      <trkpt lat="45.80025" lon="4.87735">
        <ele>225.6</ele>
        <time>2016-03-01T11:38:52Z</time>
      </trkpt>
      <trkpt lat="45.80028" lon="4.8774">
        <ele>225.7</ele>
        <time>2016-03-01T11:38:54Z</time>
      </trkpt>
      <trkpt lat="45.80036" lon="4.87751">
        <ele>226</ele>
        <time>2016-03-01T11:38:59Z</time>
      </trkpt>
      <trkpt lat="45.80043" lon="4.8776">
        <ele>226.3</ele>
        <time>2016-03-01T11:39:03Z</time>
      </trkpt>
      <trkpt lat="45.80054" lon="4.87777">
        <ele>226.6</ele>
        <time>2016-03-01T11:39:08Z</time>
      </trkpt>
      <trkpt lat="45.80067" lon="4.87793">
        <ele>227.1</ele>
        <time>2016-03-01T11:39:13Z</time>
      </trkpt>
      <trkpt lat="45.80074" lon="4.87802">
        <ele>227.4</ele>
        <time>2016-03-01T11:39:16Z</time>
      </trkpt>
      <trkpt lat="45.80074" lon="4.87802">
        <ele>227.4</ele>
        <time>2016-03-01T11:39:16Z</time>
      </trkpt>
      <trkpt lat="45.80082" lon="4.87811">
        <ele>227.8</ele>
        <time>2016-03-01T11:39:19Z</time>
      </trkpt>
      <trkpt lat="45.80095" lon="4.87827">
        <ele>228.5</ele>
        <time>2016-03-01T11:39:24Z</time>
      </trkpt>
      <trkpt lat="45.80107" lon="4.87841">
        <ele>229.1</ele>
        <time>2016-03-01T11:39:29Z</time>
      </trkpt>
      <trkpt lat="45.80119" lon="4.87857">
        <ele>229.9</ele>
        <time>2016-03-01T11:39:34Z</time>
      </trkpt>
      <trkpt lat="45.80129" lon="4.8787">
        <ele>230.5</ele>
        <time>2016-03-01T11:39:38Z</time>
      </trkpt>
      <trkpt lat="45.80137" lon="4.87883">
        <ele>231</ele>
        <time>2016-03-01T11:39:42Z</time>
      </trkpt>
      <trkpt lat="45.8015" lon="4.87898">
        <ele>231.5</ele>
        <time>2016-03-01T11:39:47Z</time>
      </trkpt>
      <trkpt lat="45.80165" lon="4.87921">
        <ele>231.6</ele>
        <time>2016-03-01T11:39:54Z</time>
      </trkpt>
      <trkpt lat="45.80178" lon="4.8794">
        <ele>231.4</ele>
        <time>2016-03-01T11:40:00Z</time>
      </trkpt>
      <trkpt lat="45.80189" lon="4.87956">
        <ele>231</ele>
        <time>2016-03-01T11:40:05Z</time>
      </trkpt>
      <trkpt lat="45.80201" lon="4.87972">
        <ele>231.3</ele>
        <time>2016-03-01T11:40:10Z</time>
      </trkpt>
      <trkpt lat="45.80212" lon="4.87986">
        <ele>231.6</ele>
        <time>2016-03-01T11:40:15Z</time>
      </trkpt>
      <trkpt lat="45.80223" lon="4.87998">
        <ele>232</ele>
        <time>2016-03-01T11:40:20Z</time>
      </trkpt>
      <trkpt lat="45.80234" lon="4.88013">
        <ele>232.2</ele>
        <time>2016-03-01T11:40:25Z</time>
      </trkpt>
      <trkpt lat="45.80247" lon="4.88031">
        <ele>231.9</ele>
        <time>2016-03-01T11:40:31Z</time>
      </trkpt>
      <trkpt lat="45.80257" lon="4.88047">
        <ele>231.5</ele>
        <time>2016-03-01T11:40:36Z</time>
      </trkpt>
      <trkpt lat="45.8027" lon="4.88067">
        <ele>231.2</ele>
        <time>2016-03-01T11:40:42Z</time>
      </trkpt>
      <trkpt lat="45.80277" lon="4.8808">
        <ele>231.2</ele>
        <time>2016-03-01T11:40:46Z</time>
      </trkpt>
      <trkpt lat="45.80287" lon="4.88093">
        <ele>231.5</ele>
        <time>2016-03-01T11:40:50Z</time>
      </trkpt>
      <trkpt lat="45.80303" lon="4.88116">
        <ele>232.4</ele>
        <time>2016-03-01T11:40:57Z</time>
      </trkpt>
      <trkpt lat="45.80316" lon="4.88133">
        <ele>232.7</ele>
        <time>2016-03-01T11:41:02Z</time>
      </trkpt>
      <trkpt lat="45.80326" lon="4.88147">
        <ele>232.7</ele>
        <time>2016-03-01T11:41:06Z</time>
      </trkpt>
      <trkpt lat="45.80338" lon="4.88164">
        <ele>232.6</ele>
        <time>2016-03-01T11:41:11Z</time>
      </trkpt>
      <trkpt lat="45.8035" lon="4.88181">
        <ele>232.3</ele>
        <time>2016-03-01T11:41:16Z</time>
      </trkpt>
      <trkpt lat="45.80359" lon="4.88199">
        <ele>231.6</ele>
        <time>2016-03-01T11:41:21Z</time>
      </trkpt>
      <trkpt lat="45.80372" lon="4.88219">
        <ele>231.5</ele>
        <time>2016-03-01T11:41:27Z</time>
      </trkpt>
      <trkpt lat="45.80385" lon="4.88238">
        <ele>231.7</ele>
        <time>2016-03-01T11:41:32Z</time>
      </trkpt>
      <trkpt lat="45.80395" lon="4.88251">
        <ele>231.5</ele>
        <time>2016-03-01T11:41:36Z</time>
      </trkpt>
      <trkpt lat="45.80408" lon="4.88271">
        <ele>230.3</ele>
        <time>2016-03-01T11:41:42Z</time>
      </trkpt>
      <trkpt lat="45.8042" lon="4.88289">
        <ele>228.6</ele>
        <time>2016-03-01T11:41:47Z</time>
      </trkpt>
      <trkpt lat="45.80429" lon="4.88307">
        <ele>227.4</ele>
        <time>2016-03-01T11:41:52Z</time>
      </trkpt>
      <trkpt lat="45.8044" lon="4.88329">
        <ele>226</ele>
        <time>2016-03-01T11:41:58Z</time>
      </trkpt>
      <trkpt lat="45.8045" lon="4.88347">
        <ele>224.7</ele>
        <time>2016-03-01T11:42:03Z</time>
      </trkpt>
      <trkpt lat="45.80459" lon="4.88361">
        <ele>223.7</ele>
        <time>2016-03-01T11:42:07Z</time>
      </trkpt>
      <trkpt lat="45.80469" lon="4.8838">
        <ele>223.2</ele>
        <time>2016-03-01T11:42:12Z</time>
      </trkpt>
      <trkpt lat="45.80484" lon="4.88406">
        <ele>222.7</ele>
        <time>2016-03-01T11:42:19Z</time>
      </trkpt>
      <trkpt lat="45.80494" lon="4.88419">
        <ele>222.5</ele>
        <time>2016-03-01T11:42:23Z</time>
      </trkpt>
      <trkpt lat="45.80502" lon="4.88435">
        <ele>222</ele>
        <time>2016-03-01T11:42:28Z</time>
      </trkpt>
      <trkpt lat="45.80514" lon="4.88452">
        <ele>221.6</ele>
        <time>2016-03-01T11:42:33Z</time>
      </trkpt>
      <trkpt lat="45.80525" lon="4.88471">
        <ele>221.1</ele>
        <time>2016-03-01T11:42:38Z</time>
      </trkpt>
      <trkpt lat="45.80538" lon="4.88492">
        <ele>220.7</ele>
        <time>2016-03-01T11:42:44Z</time>
      </trkpt>
      <trkpt lat="45.80549" lon="4.88508">
        <ele>220.5</ele>
        <time>2016-03-01T11:42:49Z</time>
      </trkpt>
      <trkpt lat="45.8056" lon="4.88524">
        <ele>220.4</ele>
        <time>2016-03-01T11:42:54Z</time>
      </trkpt>
      <trkpt lat="45.80562" lon="4.88528">
        <ele>220.4</ele>
        <time>2016-03-01T11:42:55Z</time>
      </trkpt>
      <trkpt lat="45.80568" lon="4.88543">
        <ele>220.2</ele>
        <time>2016-03-01T11:42:59Z</time>
      </trkpt>
      <trkpt lat="45.80566" lon="4.88563">
        <ele>219.5</ele>
        <time>2016-03-01T11:43:04Z</time>
      </trkpt>
      <trkpt lat="45.80557" lon="4.88588">
        <ele>218.3</ele>
        <time>2016-03-01T11:43:10Z</time>
      </trkpt>
      <trkpt lat="45.80545" lon="4.88612">
        <ele>216.7</ele>
        <time>2016-03-01T11:43:16Z</time>
      </trkpt>
      <trkpt lat="45.80531" lon="4.88634">
        <ele>215.2</ele>
        <time>2016-03-01T11:43:22Z</time>
      </trkpt>
      <trkpt lat="45.8051" lon="4.88664">
        <ele>213.4</ele>
        <time>2016-03-01T11:43:30Z</time>
      </trkpt>
      <trkpt lat="45.8049" lon="4.88695">
        <ele>212.1</ele>
        <time>2016-03-01T11:43:38Z</time>
      </trkpt>
      <trkpt lat="45.80482" lon="4.88715">
        <ele>211.5</ele>
        <time>2016-03-01T11:43:43Z</time>
      </trkpt>
      <trkpt lat="45.8048" lon="4.88743">
        <ele>211.4</ele>
        <time>2016-03-01T11:43:49Z</time>
      </trkpt>
      <trkpt lat="45.80483" lon="4.88757">
        <ele>211.4</ele>
        <time>2016-03-01T11:43:52Z</time>
      </trkpt>
      <trkpt lat="45.80483" lon="4.88757">
        <ele>211.4</ele>
        <time>2016-03-01T11:43:52Z</time>
      </trkpt>
      <trkpt lat="45.80485" lon="4.88766">
        <ele>211.4</ele>
        <time>2016-03-01T11:43:54Z</time>
      </trkpt>
      <trkpt lat="45.80491" lon="4.8879">
        <ele>211.4</ele>
        <time>2016-03-01T11:43:59Z</time>
      </trkpt>
      <trkpt lat="45.80498" lon="4.88812">
        <ele>211.5</ele>
        <time>2016-03-01T11:44:04Z</time>
      </trkpt>
      <trkpt lat="45.80505" lon="4.8883">
        <ele>211.6</ele>
        <time>2016-03-01T11:44:08Z</time>
      </trkpt>
      <trkpt lat="45.80517" lon="4.8886">
        <ele>211.7</ele>
        <time>2016-03-01T11:44:15Z</time>
      </trkpt>
      <trkpt lat="45.80518" lon="4.88864">
        <ele>211.7</ele>
        <time>2016-03-01T11:44:16Z</time>
      </trkpt>
      <trkpt lat="45.80533" lon="4.88888">
        <ele>211.7</ele>
        <time>2016-03-01T11:44:22Z</time>
      </trkpt>
      <trkpt lat="45.80544" lon="4.88904">
        <ele>211.4</ele>
        <time>2016-03-01T11:44:26Z</time>
      </trkpt>
      <trkpt lat="45.80551" lon="4.88915">
        <ele>211.4</ele>
        <time>2016-03-01T11:44:29Z</time>
      </trkpt>
      <trkpt lat="45.80559" lon="4.88937">
        <ele>211.1</ele>
        <time>2016-03-01T11:44:34Z</time>
      </trkpt>
      <trkpt lat="45.80561" lon="4.8894">
        <ele>211.1</ele>
        <time>2016-03-01T11:44:35Z</time>
      </trkpt>
      <trkpt lat="45.80572" lon="4.8897">
        <ele>209.8</ele>
        <time>2016-03-01T11:44:42Z</time>
      </trkpt>
      <trkpt lat="45.80576" lon="4.88978">
        <ele>209.2</ele>
        <time>2016-03-01T11:44:44Z</time>
      </trkpt>
      <trkpt lat="45.80572" lon="4.89006">
        <ele>206.8</ele>
        <time>2016-03-01T11:44:49Z</time>
      </trkpt>
      <trkpt lat="45.80565" lon="4.89032">
        <ele>204.9</ele>
        <time>2016-03-01T11:44:54Z</time>
      </trkpt>
      <trkpt lat="45.80557" lon="4.89057">
        <ele>202.7</ele>
        <time>2016-03-01T11:44:59Z</time>
      </trkpt>
      <trkpt lat="45.80547" lon="4.8908">
        <ele>200.3</ele>
        <time>2016-03-01T11:45:04Z</time>
      </trkpt>
      <trkpt lat="45.80532" lon="4.89098">
        <ele>197.9</ele>
        <time>2016-03-01T11:45:09Z</time>
      </trkpt>
      <trkpt lat="45.80515" lon="4.89118">
        <ele>194.4</ele>
        <time>2016-03-01T11:45:15Z</time>
      </trkpt>
      <trkpt lat="45.80501" lon="4.89137">
        <ele>191.3</ele>
        <time>2016-03-01T11:45:20Z</time>
      </trkpt>
      <trkpt lat="45.80486" lon="4.89154">
        <ele>188.6</ele>
        <time>2016-03-01T11:45:25Z</time>
      </trkpt>
      <trkpt lat="45.80472" lon="4.89172">
        <ele>185.4</ele>
        <time>2016-03-01T11:45:30Z</time>
      </trkpt>
      <trkpt lat="45.80453" lon="4.8918">
        <ele>182.9</ele>
        <time>2016-03-01T11:45:35Z</time>
      </trkpt>
      <trkpt lat="45.80433" lon="4.89187">
        <ele>180</ele>
        <time>2016-03-01T11:45:41Z</time>
      </trkpt>
      <trkpt lat="45.8042" lon="4.89194">
        <ele>178.1</ele>
        <time>2016-03-01T11:45:45Z</time>
      </trkpt>
      <trkpt lat="45.80404" lon="4.89203">
        <ele>175.9</ele>
        <time>2016-03-01T11:45:50Z</time>
      </trkpt>
      <trkpt lat="45.80385" lon="4.89213">
        <ele>173.8</ele>
        <time>2016-03-01T11:45:56Z</time>
      </trkpt>
      <trkpt lat="45.80373" lon="4.89218">
        <ele>172.9</ele>
        <time>2016-03-01T11:46:00Z</time>
      </trkpt>
      <trkpt lat="45.80363" lon="4.89221">
        <ele>172.7</ele>
        <time>2016-03-01T11:46:04Z</time>
      </trkpt>
      <trkpt lat="45.80354" lon="4.89206">
        <ele>172.6</ele>
        <time>2016-03-01T11:46:09Z</time>
      </trkpt>
      <trkpt lat="45.8035" lon="4.89185">
        <ele>173.5</ele>
        <time>2016-03-01T11:46:14Z</time>
      </trkpt>
      <trkpt lat="45.8035" lon="4.89181">
        <ele>173.6</ele>
        <time>2016-03-01T11:46:15Z</time>
      </trkpt>
      <trkpt lat="45.80343" lon="4.89155">
        <ele>174.4</ele>
        <time>2016-03-01T11:46:22Z</time>
      </trkpt>
      <trkpt lat="45.80341" lon="4.89131">
        <ele>175.3</ele>
        <time>2016-03-01T11:46:28Z</time>
      </trkpt>
      <trkpt lat="45.8034" lon="4.89127">
        <ele>175.4</ele>
        <time>2016-03-01T11:46:29Z</time>
      </trkpt>
      <trkpt lat="45.80331" lon="4.89097">
        <ele>175.8</ele>
        <time>2016-03-01T11:46:36Z</time>
      </trkpt>
      <trkpt lat="45.80324" lon="4.89071">
        <ele>175.8</ele>
        <time>2016-03-01T11:46:42Z</time>
      </trkpt>
      <trkpt lat="45.80319" lon="4.8905">
        <ele>175.7</ele>
        <time>2016-03-01T11:46:47Z</time>
      </trkpt>
      <trkpt lat="45.80314" lon="4.89029">
        <ele>175.5</ele>
        <time>2016-03-01T11:46:52Z</time>
      </trkpt>
      <trkpt lat="45.8031" lon="4.89008">
        <ele>175</ele>
        <time>2016-03-01T11:46:57Z</time>
      </trkpt>
      <trkpt lat="45.80304" lon="4.88985">
        <ele>173.6</ele>
        <time>2016-03-01T11:47:03Z</time>
      </trkpt>
      <trkpt lat="45.80297" lon="4.88958">
        <ele>171.5</ele>
        <time>2016-03-01T11:47:10Z</time>
      </trkpt>
      <trkpt lat="45.80289" lon="4.88934">
        <ele>171.7</ele>
        <time>2016-03-01T11:47:16Z</time>
      </trkpt>
      <trkpt lat="45.80282" lon="4.88906">
        <ele>173.4</ele>
        <time>2016-03-01T11:47:23Z</time>
      </trkpt>
      <trkpt lat="45.80274" lon="4.88882">
        <ele>174.3</ele>
        <time>2016-03-01T11:47:29Z</time>
      </trkpt>
      <trkpt lat="45.80263" lon="4.88855">
        <ele>176.3</ele>
        <time>2016-03-01T11:47:36Z</time>
      </trkpt>
      <trkpt lat="45.80256" lon="4.88836">
        <ele>177.7</ele>
        <time>2016-03-01T11:47:41Z</time>
      </trkpt>
      <trkpt lat="45.80252" lon="4.88824">
        <ele>178.4</ele>
        <time>2016-03-01T11:47:44Z</time>
      </trkpt>
      <trkpt lat="45.80241" lon="4.88796">
        <ele>179.5</ele>
        <time>2016-03-01T11:47:51Z</time>
      </trkpt>
      <trkpt lat="45.80231" lon="4.88774">
        <ele>179.4</ele>
        <time>2016-03-01T11:47:57Z</time>
      </trkpt>
      <trkpt lat="45.80223" lon="4.88754">
        <ele>178.8</ele>
        <time>2016-03-01T11:48:02Z</time>
      </trkpt>
      <trkpt lat="45.80213" lon="4.88734">
        <ele>177.4</ele>
        <time>2016-03-01T11:48:07Z</time>
      </trkpt>
      <trkpt lat="45.80202" lon="4.88711">
        <ele>176.5</ele>
        <time>2016-03-01T11:48:13Z</time>
      </trkpt>
      <trkpt lat="45.80192" lon="4.88689">
        <ele>178.5</ele>
        <time>2016-03-01T11:48:19Z</time>
      </trkpt>
      <trkpt lat="45.80184" lon="4.8867">
        <ele>180</ele>
        <time>2016-03-01T11:48:24Z</time>
      </trkpt>
      <trkpt lat="45.80184" lon="4.8867">
        <ele>180</ele>
        <time>2016-03-01T11:48:24Z</time>
      </trkpt>
      <trkpt lat="45.80182" lon="4.88666">
        <ele>180.2</ele>
        <time>2016-03-01T11:48:25Z</time>
      </trkpt>
      <trkpt lat="45.80173" lon="4.88648">
        <ele>181.2</ele>
        <time>2016-03-01T11:48:30Z</time>
      </trkpt>
      <trkpt lat="45.80161" lon="4.88623">
        <ele>181.8</ele>
        <time>2016-03-01T11:48:37Z</time>
      </trkpt>
      <trkpt lat="45.80152" lon="4.88605">
        <ele>182.2</ele>
        <time>2016-03-01T11:48:42Z</time>
      </trkpt>
      <trkpt lat="45.8014" lon="4.88584">
        <ele>181.4</ele>
        <time>2016-03-01T11:48:48Z</time>
      </trkpt>
      <trkpt lat="45.80128" lon="4.88563">
        <ele>179.8</ele>
        <time>2016-03-01T11:48:54Z</time>
      </trkpt>
      <trkpt lat="45.80114" lon="4.88538">
        <ele>179.5</ele>
        <time>2016-03-01T11:49:01Z</time>
      </trkpt>
      <trkpt lat="45.80102" lon="4.88516">
        <ele>180.5</ele>
        <time>2016-03-01T11:49:07Z</time>
      </trkpt>
      <trkpt lat="45.80088" lon="4.88492">
        <ele>180.4</ele>
        <time>2016-03-01T11:49:14Z</time>
      </trkpt>
      <trkpt lat="45.80075" lon="4.88471">
        <ele>179</ele>
        <time>2016-03-01T11:49:20Z</time>
      </trkpt>
      <trkpt lat="45.8006" lon="4.88445">
        <ele>177.6</ele>
        <time>2016-03-01T11:49:27Z</time>
      </trkpt>
      <trkpt lat="45.80047" lon="4.88424">
        <ele>176.7</ele>
        <time>2016-03-01T11:49:33Z</time>
      </trkpt>
      <trkpt lat="45.80037" lon="4.88406">
        <ele>177</ele>
        <time>2016-03-01T11:49:38Z</time>
      </trkpt>
      <trkpt lat="45.80022" lon="4.88381">
        <ele>178.3</ele>
        <time>2016-03-01T11:49:45Z</time>
      </trkpt>
      <trkpt lat="45.80011" lon="4.88364">
        <ele>179.1</ele>
        <time>2016-03-01T11:49:50Z</time>
      </trkpt>
      <trkpt lat="45.79996" lon="4.8834">
        <ele>180</ele>
        <time>2016-03-01T11:49:57Z</time>
      </trkpt>
      <trkpt lat="45.79984" lon="4.88319">
        <ele>180.3</ele>
        <time>2016-03-01T11:50:03Z</time>
      </trkpt>
      <trkpt lat="45.79975" lon="4.88305">
        <ele>180</ele>
        <time>2016-03-01T11:50:07Z</time>
      </trkpt>
      <trkpt lat="45.79964" lon="4.88288">
        <ele>179.5</ele>
        <time>2016-03-01T11:50:12Z</time>
      </trkpt>
      <trkpt lat="45.79952" lon="4.88266">
        <ele>179.7</ele>
        <time>2016-03-01T11:50:18Z</time>
      </trkpt>
      <trkpt lat="45.79937" lon="4.8824">
        <ele>179.9</ele>
        <time>2016-03-01T11:50:25Z</time>
      </trkpt>
      <trkpt lat="45.79922" lon="4.88215">
        <ele>179.1</ele>
        <time>2016-03-01T11:50:32Z</time>
      </trkpt>
      <trkpt lat="45.79912" lon="4.88197">
        <ele>178.7</ele>
        <time>2016-03-01T11:50:37Z</time>
      </trkpt>
      <trkpt lat="45.79899" lon="4.88177">
        <ele>178.1</ele>
        <time>2016-03-01T11:50:43Z</time>
      </trkpt>
      <trkpt lat="45.79884" lon="4.88151">
        <ele>176.6</ele>
        <time>2016-03-01T11:50:50Z</time>
      </trkpt>
      <trkpt lat="45.79874" lon="4.88135">
        <ele>175.4</ele>
        <time>2016-03-01T11:50:55Z</time>
      </trkpt>
      <trkpt lat="45.79861" lon="4.88116">
        <ele>176.5</ele>
        <time>2016-03-01T11:51:01Z</time>
      </trkpt>
      <trkpt lat="45.79859" lon="4.88113">
        <ele>176.8</ele>
        <time>2016-03-01T11:51:02Z</time>
      </trkpt>
      <trkpt lat="45.7985" lon="4.88101">
        <ele>177.6</ele>
        <time>2016-03-01T11:51:06Z</time>
      </trkpt>
      <trkpt lat="45.79837" lon="4.88081">
        <ele>178.7</ele>
        <time>2016-03-01T11:51:12Z</time>
      </trkpt>
      <trkpt lat="45.79826" lon="4.88063">
        <ele>179.1</ele>
        <time>2016-03-01T11:51:17Z</time>
      </trkpt>
      <trkpt lat="45.7981" lon="4.8804">
        <ele>178.5</ele>
        <time>2016-03-01T11:51:24Z</time>
      </trkpt>
      <trkpt lat="45.79797" lon="4.88021">
        <ele>177.6</ele>
        <time>2016-03-01T11:51:30Z</time>
      </trkpt>
      <trkpt lat="45.79784" lon="4.88">
        <ele>177.2</ele>
        <time>2016-03-01T11:51:36Z</time>
      </trkpt>
      <trkpt lat="45.79772" lon="4.87979">
        <ele>176.9</ele>
        <time>2016-03-01T11:51:42Z</time>
      </trkpt>
      <trkpt lat="45.79758" lon="4.87961">
        <ele>175.7</ele>
        <time>2016-03-01T11:51:48Z</time>
      </trkpt>
      <trkpt lat="45.7974" lon="4.87935">
        <ele>176.5</ele>
        <time>2016-03-01T11:51:56Z</time>
      </trkpt>
      <trkpt lat="45.79725" lon="4.87912">
        <ele>176.5</ele>
        <time>2016-03-01T11:52:03Z</time>
      </trkpt>
      <trkpt lat="45.79713" lon="4.87892">
        <ele>175.6</ele>
        <time>2016-03-01T11:52:09Z</time>
      </trkpt>
      <trkpt lat="45.79703" lon="4.87877">
        <ele>175.3</ele>
        <time>2016-03-01T11:52:14Z</time>
      </trkpt>
      <trkpt lat="45.7969" lon="4.87857">
        <ele>174.8</ele>
        <time>2016-03-01T11:52:20Z</time>
      </trkpt>
      <trkpt lat="45.79677" lon="4.8784">
        <ele>174</ele>
        <time>2016-03-01T11:52:26Z</time>
      </trkpt>
      <trkpt lat="45.79662" lon="4.87822">
        <ele>172.8</ele>
        <time>2016-03-01T11:52:33Z</time>
      </trkpt>
      <trkpt lat="45.79659" lon="4.87815">
        <ele>172.7</ele>
        <time>2016-03-01T11:52:35Z</time>
      </trkpt>
      <trkpt lat="45.79661" lon="4.87802">
        <ele>173.4</ele>
        <time>2016-03-01T11:52:39Z</time>
      </trkpt>
      <trkpt lat="45.79663" lon="4.87796">
        <ele>173.9</ele>
        <time>2016-03-01T11:52:41Z</time>
      </trkpt>
      <trkpt lat="45.79664" lon="4.87791">
        <ele>174.2</ele>
        <time>2016-03-01T11:52:42Z</time>
      </trkpt>
      <trkpt lat="45.79672" lon="4.87775">
        <ele>177.8</ele>
        <time>2016-03-01T11:52:47Z</time>
      </trkpt>
      <trkpt lat="45.79674" lon="4.87773">
        <ele>178.4</ele>
        <time>2016-03-01T11:52:48Z</time>
      </trkpt>
      <trkpt lat="45.79685" lon="4.8776">
        <ele>182.3</ele>
        <time>2016-03-01T11:52:55Z</time>
      </trkpt>
      <trkpt lat="45.79691" lon="4.87754">
        <ele>184.5</ele>
        <time>2016-03-01T11:53:00Z</time>
      </trkpt>
      <trkpt lat="45.79698" lon="4.8775">
        <ele>186.5</ele>
        <time>2016-03-01T11:53:06Z</time>
      </trkpt>
      <trkpt lat="45.79704" lon="4.8775">
        <ele>187.7</ele>
        <time>2016-03-01T11:53:10Z</time>
      </trkpt>
      <trkpt lat="45.79708" lon="4.87748">
        <ele>188.9</ele>
        <time>2016-03-01T11:53:14Z</time>
      </trkpt>
      <trkpt lat="45.79716" lon="4.87745">
        <ele>191.2</ele>
        <time>2016-03-01T11:53:20Z</time>
      </trkpt>
      <trkpt lat="45.79719" lon="4.87745">
        <ele>191.9</ele>
        <time>2016-03-01T11:53:22Z</time>
      </trkpt>
      <trkpt lat="45.79724" lon="4.87744">
        <ele>193.3</ele>
        <time>2016-03-01T11:53:27Z</time>
      </trkpt>
      <trkpt lat="45.79734" lon="4.87743">
        <ele>195.7</ele>
        <time>2016-03-01T11:53:34Z</time>
      </trkpt>
      <trkpt lat="45.79742" lon="4.87743">
        <ele>197.6</ele>
        <time>2016-03-01T11:53:40Z</time>
      </trkpt>
      <trkpt lat="45.79743" lon="4.87743">
        <ele>197.8</ele>
        <time>2016-03-01T11:53:41Z</time>
      </trkpt>
      <trkpt lat="45.79753" lon="4.87743">
        <ele>200.2</ele>
        <time>2016-03-01T11:53:48Z</time>
      </trkpt>
      <trkpt lat="45.79759" lon="4.87742">
        <ele>201.5</ele>
        <time>2016-03-01T11:53:52Z</time>
      </trkpt>
      <trkpt lat="45.79771" lon="4.87742">
        <ele>204.5</ele>
        <time>2016-03-01T11:54:01Z</time>
      </trkpt>
      <trkpt lat="45.79779" lon="4.87741">
        <ele>206.5</ele>
        <time>2016-03-01T11:54:07Z</time>
      </trkpt>
      <trkpt lat="45.79789" lon="4.87746">
        <ele>207.8</ele>
        <time>2016-03-01T11:54:13Z</time>
      </trkpt>
      <trkpt lat="45.79796" lon="4.87754">
        <ele>207.9</ele>
        <time>2016-03-01T11:54:19Z</time>
      </trkpt>
      <trkpt lat="45.79803" lon="4.8776">
        <ele>207.9</ele>
        <time>2016-03-01T11:54:23Z</time>
      </trkpt>
      <trkpt lat="45.79815" lon="4.87765">
        <ele>208.6</ele>
        <time>2016-03-01T11:54:28Z</time>
      </trkpt>
      <trkpt lat="45.79831" lon="4.87771">
        <ele>210</ele>
        <time>2016-03-01T11:54:33Z</time>
      </trkpt>
      <trkpt lat="45.79842" lon="4.87768">
        <ele>211.6</ele>
        <time>2016-03-01T11:54:40Z</time>
      </trkpt>
      <trkpt lat="45.79846" lon="4.87764">
        <ele>212.3</ele>
        <time>2016-03-01T11:54:43Z</time>
      </trkpt>
      <trkpt lat="45.79851" lon="4.8776">
        <ele>213.2</ele>
        <time>2016-03-01T11:54:49Z</time>
      </trkpt>
      <trkpt lat="45.79858" lon="4.87755">
        <ele>214.1</ele>
        <time>2016-03-01T11:54:55Z</time>
      </trkpt>
      <trkpt lat="45.79864" lon="4.87752">
        <ele>214.9</ele>
        <time>2016-03-01T11:55:00Z</time>
      </trkpt>
      <trkpt lat="45.79865" lon="4.87751">
        <ele>215.1</ele>
        <time>2016-03-01T11:55:02Z</time>
      </trkpt>
      <trkpt lat="45.79868" lon="4.87747">
        <ele>215.4</ele>
        <time>2016-03-01T11:55:05Z</time>
      </trkpt>
      <trkpt lat="45.79869" lon="4.87742">
        <ele>215.7</ele>
        <time>2016-03-01T11:55:10Z</time>
      </trkpt>
      <trkpt lat="45.79869" lon="4.87743">
        <ele>215.7</ele>
        <time>2016-03-01T11:55:11Z</time>
      </trkpt>
      <trkpt lat="45.79878" lon="4.87751">
        <ele>216.1</ele>
        <time>2016-03-01T11:55:16Z</time>
      </trkpt>
      <trkpt lat="45.7989" lon="4.87755">
        <ele>216.6</ele>
        <time>2016-03-01T11:55:20Z</time>
      </trkpt>
      <trkpt lat="45.79898" lon="4.87759">
        <ele>217</ele>
        <time>2016-03-01T11:55:23Z</time>
      </trkpt>
      <trkpt lat="45.79911" lon="4.87758">
        <ele>217.6</ele>
        <time>2016-03-01T11:55:28Z</time>
      </trkpt>
      <trkpt lat="45.79919" lon="4.87758">
        <ele>218</ele>
        <time>2016-03-01T11:55:32Z</time>
      </trkpt>
      <trkpt lat="45.79931" lon="4.87755">
        <ele>218.7</ele>
        <time>2016-03-01T11:55:37Z</time>
      </trkpt>
      <trkpt lat="45.79945" lon="4.87752">
        <ele>219.4</ele>
        <time>2016-03-01T11:55:42Z</time>
      </trkpt>
      <trkpt lat="45.7995" lon="4.87751">
        <ele>219.6</ele>
        <time>2016-03-01T11:55:44Z</time>
      </trkpt>
      <trkpt lat="45.79967" lon="4.87745">
        <ele>220.7</ele>
        <time>2016-03-01T11:55:50Z</time>
      </trkpt>
      <trkpt lat="45.79984" lon="4.87738">
        <ele>222.1</ele>
        <time>2016-03-01T11:55:57Z</time>
      </trkpt>
      <trkpt lat="45.79996" lon="4.8773">
        <ele>223.2</ele>
        <time>2016-03-01T11:56:02Z</time>
      </trkpt>
      <trkpt lat="45.8" lon="4.87727">
        <ele>223.7</ele>
        <time>2016-03-01T11:56:04Z</time>
      </trkpt>
      <trkpt lat="45.8" lon="4.87727">
        <ele>223.7</ele>
        <time>2016-03-01T11:56:08Z</time>
      </trkpt>
      <trkpt lat="45.8" lon="4.87727">
        <ele>223.7</ele>
        <time>2016-03-01T11:56:48Z</time>
      </trkpt>
      <trkpt lat="45.80026" lon="4.87731">
        <ele>225.8</ele>
        <time>2016-03-01T11:56:50Z</time>
      </trkpt>
      <trkpt lat="45.80029" lon="4.87721">
        <ele>226.4</ele>
        <time>2016-03-01T11:56:53Z</time>
      </trkpt>
      <trkpt lat="45.80036" lon="4.87712">
        <ele>227.3</ele>
        <time>2016-03-01T11:56:56Z</time>
      </trkpt>
      <trkpt lat="45.80046" lon="4.87704">
        <ele>228.9</ele>
        <time>2016-03-01T11:57:00Z</time>
      </trkpt>
      <trkpt lat="45.80044" lon="4.8769">
        <ele>230</ele>
        <time>2016-03-01T11:57:04Z</time>
      </trkpt>
      <trkpt lat="45.8003" lon="4.87667">
        <ele>230.9</ele>
        <time>2016-03-01T11:57:11Z</time>
      </trkpt>
      <trkpt lat="45.8002" lon="4.87648">
        <ele>231.7</ele>
        <time>2016-03-01T11:57:17Z</time>
      </trkpt>
      <trkpt lat="45.80008" lon="4.87626">
        <ele>232.7</ele>
        <time>2016-03-01T11:57:24Z</time>
      </trkpt>
      <trkpt lat="45.79998" lon="4.87609">
        <ele>232.9</ele>
        <time>2016-03-01T11:57:30Z</time>
      </trkpt>
      <trkpt lat="45.79994" lon="4.87588">
        <ele>234</ele>
        <time>2016-03-01T11:57:36Z</time>
      </trkpt>
      <trkpt lat="45.79995" lon="4.8757">
        <ele>235.3</ele>
        <time>2016-03-01T11:57:41Z</time>
      </trkpt>
      <trkpt lat="45.8" lon="4.87551">
        <ele>236.9</ele>
        <time>2016-03-01T11:57:47Z</time>
      </trkpt>
      <trkpt lat="45.80011" lon="4.87528">
        <ele>238.8</ele>
        <time>2016-03-01T11:57:55Z</time>
      </trkpt>
      <trkpt lat="45.80017" lon="4.87517">
        <ele>239.5</ele>
        <time>2016-03-01T11:57:59Z</time>
      </trkpt>
      <trkpt lat="45.80027" lon="4.87502">
        <ele>240.4</ele>
        <time>2016-03-01T11:58:05Z</time>
      </trkpt>
      <trkpt lat="45.80033" lon="4.87487">
        <ele>241.1</ele>
        <time>2016-03-01T11:58:10Z</time>
      </trkpt>
      <trkpt lat="45.80039" lon="4.87476">
        <ele>241.5</ele>
        <time>2016-03-01T11:58:14Z</time>
      </trkpt>
      <trkpt lat="45.80048" lon="4.87461">
        <ele>242.6</ele>
        <time>2016-03-01T11:58:20Z</time>
      </trkpt>
      <trkpt lat="45.80052" lon="4.8744">
        <ele>243.3</ele>
        <time>2016-03-01T11:58:26Z</time>
      </trkpt>
      <trkpt lat="45.80057" lon="4.87419">
        <ele>244</ele>
        <time>2016-03-01T11:58:32Z</time>
      </trkpt>
      <trkpt lat="45.80063" lon="4.87399">
        <ele>244.8</ele>
        <time>2016-03-01T11:58:38Z</time>
      </trkpt>
      <trkpt lat="45.80066" lon="4.87383">
        <ele>245.3</ele>
        <time>2016-03-01T11:58:43Z</time>
      </trkpt>
      <trkpt lat="45.80071" lon="4.87362">
        <ele>246.3</ele>
        <time>2016-03-01T11:58:50Z</time>
      </trkpt>
      <trkpt lat="45.80073" lon="4.87346">
        <ele>247</ele>
        <time>2016-03-01T11:58:55Z</time>
      </trkpt>
      <trkpt lat="45.80076" lon="4.87331">
        <ele>247.8</ele>
        <time>2016-03-01T11:59:00Z</time>
      </trkpt>
      <trkpt lat="45.80078" lon="4.87315">
        <ele>248.7</ele>
        <time>2016-03-01T11:59:05Z</time>
      </trkpt>
      <trkpt lat="45.80081" lon="4.87296">
        <ele>249.6</ele>
        <time>2016-03-01T11:59:11Z</time>
      </trkpt>
      <trkpt lat="45.80082" lon="4.87281">
        <ele>250.3</ele>
        <time>2016-03-01T11:59:15Z</time>
      </trkpt>
      <trkpt lat="45.80078" lon="4.87248">
        <ele>251.1</ele>
        <time>2016-03-01T11:59:23Z</time>
      </trkpt>
      <trkpt lat="45.80077" lon="4.87224">
        <ele>252</ele>
        <time>2016-03-01T11:59:29Z</time>
      </trkpt>
      <trkpt lat="45.80078" lon="4.87208">
        <ele>252.6</ele>
        <time>2016-03-01T11:59:33Z</time>
      </trkpt>
      <trkpt lat="45.80078" lon="4.8718">
        <ele>253.5</ele>
        <time>2016-03-01T11:59:40Z</time>
      </trkpt>
      <trkpt lat="45.80079" lon="4.87151">
        <ele>254.4</ele>
        <time>2016-03-01T11:59:47Z</time>
      </trkpt>
      <trkpt lat="45.80079" lon="4.8713">
        <ele>255.1</ele>
        <time>2016-03-01T11:59:52Z</time>
      </trkpt>
      <trkpt lat="45.80079" lon="4.87112">
        <ele>255.1</ele>
        <time>2016-03-01T11:59:57Z</time>
      </trkpt>
      <trkpt lat="45.8008" lon="4.87094">
        <ele>254.9</ele>
        <time>2016-03-01T12:00:02Z</time>
      </trkpt>
      <trkpt lat="45.80083" lon="4.87076">
        <ele>254.9</ele>
        <time>2016-03-01T12:00:07Z</time>
      </trkpt>
      <trkpt lat="45.80088" lon="4.87058">
        <ele>254.9</ele>
        <time>2016-03-01T12:00:12Z</time>
      </trkpt>
      <trkpt lat="45.80097" lon="4.87032">
        <ele>255.1</ele>
        <time>2016-03-01T12:00:19Z</time>
      </trkpt>
      <trkpt lat="45.80105" lon="4.8701">
        <ele>255.1</ele>
        <time>2016-03-01T12:00:25Z</time>
      </trkpt>
      <trkpt lat="45.80112" lon="4.86986">
        <ele>255.3</ele>
        <time>2016-03-01T12:00:31Z</time>
      </trkpt>
      <trkpt lat="45.80121" lon="4.8696">
        <ele>255.6</ele>
        <time>2016-03-01T12:00:38Z</time>
      </trkpt>
      <trkpt lat="45.80126" lon="4.8694">
        <ele>255.6</ele>
        <time>2016-03-01T12:00:43Z</time>
      </trkpt>
      <trkpt lat="45.80133" lon="4.86917">
        <ele>255.3</ele>
        <time>2016-03-01T12:00:49Z</time>
      </trkpt>
      <trkpt lat="45.80139" lon="4.86895">
        <ele>255.1</ele>
        <time>2016-03-01T12:00:55Z</time>
      </trkpt>
      <trkpt lat="45.80144" lon="4.86883">
        <ele>255.1</ele>
        <time>2016-03-01T12:00:59Z</time>
      </trkpt>
      <trkpt lat="45.80156" lon="4.86871">
        <ele>255.4</ele>
        <time>2016-03-01T12:01:04Z</time>
      </trkpt>
      <trkpt lat="45.80162" lon="4.86849">
        <ele>255.3</ele>
        <time>2016-03-01T12:01:09Z</time>
      </trkpt>
      <trkpt lat="45.80166" lon="4.86826">
        <ele>255.1</ele>
        <time>2016-03-01T12:01:14Z</time>
      </trkpt>
      <trkpt lat="45.80168" lon="4.86817">
        <ele>255</ele>
        <time>2016-03-01T12:01:16Z</time>
      </trkpt>
      <trkpt lat="45.80168" lon="4.86817">
        <ele>255</ele>
        <time>2016-03-01T12:01:16Z</time>
      </trkpt>
      <trkpt lat="45.8017" lon="4.868">
        <ele>254.9</ele>
        <time>2016-03-01T12:01:20Z</time>
      </trkpt>
      <trkpt lat="45.80171" lon="4.86783">
        <ele>254.9</ele>
        <time>2016-03-01T12:01:24Z</time>
      </trkpt>
      <trkpt lat="45.80172" lon="4.86756">
        <ele>255.3</ele>
        <time>2016-03-01T12:01:30Z</time>
      </trkpt>
      <trkpt lat="45.80169" lon="4.86728">
        <ele>255.7</ele>
        <time>2016-03-01T12:01:36Z</time>
      </trkpt>
      <trkpt lat="45.80169" lon="4.86701">
        <ele>256.3</ele>
        <time>2016-03-01T12:01:42Z</time>
      </trkpt>
      <trkpt lat="45.80167" lon="4.86673">
        <ele>257.3</ele>
        <time>2016-03-01T12:01:48Z</time>
      </trkpt>
      <trkpt lat="45.80166" lon="4.86649">
        <ele>258.1</ele>
        <time>2016-03-01T12:01:53Z</time>
      </trkpt>
      <trkpt lat="45.80164" lon="4.86622">
        <ele>259.1</ele>
        <time>2016-03-01T12:01:59Z</time>
      </trkpt>
      <trkpt lat="45.80162" lon="4.86596">
        <ele>259.6</ele>
        <time>2016-03-01T12:02:05Z</time>
      </trkpt>
      <trkpt lat="45.80161" lon="4.86575">
        <ele>260</ele>
        <time>2016-03-01T12:02:10Z</time>
      </trkpt>
      <trkpt lat="45.8016" lon="4.86558">
        <ele>260.3</ele>
        <time>2016-03-01T12:02:14Z</time>
      </trkpt>
      <trkpt lat="45.8016" lon="4.86539">
        <ele>260.6</ele>
        <time>2016-03-01T12:02:18Z</time>
      </trkpt>
      <trkpt lat="45.80159" lon="4.86504">
        <ele>261.4</ele>
        <time>2016-03-01T12:02:26Z</time>
      </trkpt>
      <trkpt lat="45.80157" lon="4.86483">
        <ele>261.9</ele>
        <time>2016-03-01T12:02:31Z</time>
      </trkpt>
      <trkpt lat="45.80156" lon="4.8647">
        <ele>262.1</ele>
        <time>2016-03-01T12:02:34Z</time>
      </trkpt>
      <trkpt lat="45.80154" lon="4.86447">
        <ele>262.3</ele>
        <time>2016-03-01T12:02:40Z</time>
      </trkpt>
      <trkpt lat="45.80154" lon="4.86438">
        <ele>262.3</ele>
        <time>2016-03-01T12:02:42Z</time>
      </trkpt>
      <trkpt lat="45.80152" lon="4.86413">
        <ele>262.3</ele>
        <time>2016-03-01T12:02:48Z</time>
      </trkpt>
      <trkpt lat="45.80152" lon="4.86391">
        <ele>262.3</ele>
        <time>2016-03-01T12:02:53Z</time>
      </trkpt>
      <trkpt lat="45.80151" lon="4.86369">
        <ele>262.3</ele>
        <time>2016-03-01T12:02:58Z</time>
      </trkpt>
      <trkpt lat="45.80149" lon="4.86342">
        <ele>261.7</ele>
        <time>2016-03-01T12:03:04Z</time>
      </trkpt>
      <trkpt lat="45.80147" lon="4.86334">
        <ele>261.6</ele>
        <time>2016-03-01T12:03:06Z</time>
      </trkpt>
      <trkpt lat="45.80136" lon="4.86323">
        <ele>261.6</ele>
        <time>2016-03-01T12:03:11Z</time>
      </trkpt>
      <trkpt lat="45.80137" lon="4.86309">
        <ele>261.2</ele>
        <time>2016-03-01T12:03:15Z</time>
      </trkpt>
      <trkpt lat="45.8014" lon="4.86301">
        <ele>261</ele>
        <time>2016-03-01T12:03:17Z</time>
      </trkpt>
      <trkpt lat="45.80143" lon="4.86296">
        <ele>260.9</ele>
        <time>2016-03-01T12:03:19Z</time>
      </trkpt>
      <trkpt lat="45.80144" lon="4.86277">
        <ele>260.3</ele>
        <time>2016-03-01T12:03:24Z</time>
      </trkpt>
      <trkpt lat="45.80142" lon="4.8625">
        <ele>259.5</ele>
        <time>2016-03-01T12:03:30Z</time>
      </trkpt>
      <trkpt lat="45.80141" lon="4.86241">
        <ele>259.2</ele>
        <time>2016-03-01T12:03:32Z</time>
      </trkpt>
      <trkpt lat="45.80139" lon="4.86223">
        <ele>258.7</ele>
        <time>2016-03-01T12:03:36Z</time>
      </trkpt>
      <trkpt lat="45.80139" lon="4.86203">
        <ele>258.1</ele>
        <time>2016-03-01T12:03:41Z</time>
      </trkpt>
      <trkpt lat="45.80137" lon="4.86179">
        <ele>257.6</ele>
        <time>2016-03-01T12:03:47Z</time>
      </trkpt>
      <trkpt lat="45.80135" lon="4.86157">
        <ele>257.1</ele>
        <time>2016-03-01T12:03:52Z</time>
      </trkpt>
      <trkpt lat="45.80135" lon="4.86136">
        <ele>256.7</ele>
        <time>2016-03-01T12:03:57Z</time>
      </trkpt>
      <trkpt lat="45.80133" lon="4.86117">
        <ele>256.4</ele>
        <time>2016-03-01T12:04:01Z</time>
      </trkpt>
      <trkpt lat="45.80129" lon="4.86085">
        <ele>256.2</ele>
        <time>2016-03-01T12:04:08Z</time>
      </trkpt>
      <trkpt lat="45.80127" lon="4.86058">
        <ele>256.1</ele>
        <time>2016-03-01T12:04:14Z</time>
      </trkpt>
      <trkpt lat="45.80125" lon="4.86036">
        <ele>256</ele>
        <time>2016-03-01T12:04:19Z</time>
      </trkpt>
      <trkpt lat="45.80123" lon="4.86011">
        <ele>255.9</ele>
        <time>2016-03-01T12:04:24Z</time>
      </trkpt>
      <trkpt lat="45.80124" lon="4.86002">
        <ele>255.9</ele>
        <time>2016-03-01T12:04:26Z</time>
      </trkpt>
      <trkpt lat="45.80123" lon="4.85976">
        <ele>255.9</ele>
        <time>2016-03-01T12:04:32Z</time>
      </trkpt>
      <trkpt lat="45.80124" lon="4.85952">
        <ele>256.1</ele>
        <time>2016-03-01T12:04:38Z</time>
      </trkpt>
      <trkpt lat="45.80121" lon="4.85934">
        <ele>256.4</ele>
        <time>2016-03-01T12:04:42Z</time>
      </trkpt>
      <trkpt lat="45.80121" lon="4.85916">
        <ele>256.8</ele>
        <time>2016-03-01T12:04:46Z</time>
      </trkpt>
      <trkpt lat="45.8012" lon="4.85886">
        <ele>257.5</ele>
        <time>2016-03-01T12:04:52Z</time>
      </trkpt>
      <trkpt lat="45.8012" lon="4.85864">
        <ele>257.8</ele>
        <time>2016-03-01T12:04:57Z</time>
      </trkpt>
      <trkpt lat="45.80119" lon="4.85843">
        <ele>257.7</ele>
        <time>2016-03-01T12:05:02Z</time>
      </trkpt>
      <trkpt lat="45.80118" lon="4.85817">
        <ele>257.6</ele>
        <time>2016-03-01T12:05:08Z</time>
      </trkpt>
      <trkpt lat="45.80116" lon="4.85789">
        <ele>257.3</ele>
        <time>2016-03-01T12:05:14Z</time>
      </trkpt>
      <trkpt lat="45.80114" lon="4.85761">
        <ele>255.6</ele>
        <time>2016-03-01T12:05:20Z</time>
      </trkpt>
      <trkpt lat="45.80112" lon="4.85738">
        <ele>254.1</ele>
        <time>2016-03-01T12:05:25Z</time>
      </trkpt>
      <trkpt lat="45.8011" lon="4.8572">
        <ele>253</ele>
        <time>2016-03-01T12:05:29Z</time>
      </trkpt>
      <trkpt lat="45.80109" lon="4.85699">
        <ele>252.2</ele>
        <time>2016-03-01T12:05:34Z</time>
      </trkpt>
      <trkpt lat="45.80106" lon="4.85675">
        <ele>252</ele>
        <time>2016-03-01T12:05:39Z</time>
      </trkpt>
      <trkpt lat="45.801" lon="4.8565">
        <ele>251.6</ele>
        <time>2016-03-01T12:05:44Z</time>
      </trkpt>
      <trkpt lat="45.80098" lon="4.85622">
        <ele>251.5</ele>
        <time>2016-03-01T12:05:50Z</time>
      </trkpt>
      <trkpt lat="45.80097" lon="4.85609">
        <ele>252</ele>
        <time>2016-03-01T12:05:53Z</time>
      </trkpt>
      <trkpt lat="45.80097" lon="4.85586">
        <ele>252.9</ele>
        <time>2016-03-01T12:05:58Z</time>
      </trkpt>
      <trkpt lat="45.80097" lon="4.85563">
        <ele>253.8</ele>
        <time>2016-03-01T12:06:03Z</time>
      </trkpt>
      <trkpt lat="45.80096" lon="4.85551">
        <ele>254.3</ele>
        <time>2016-03-01T12:06:06Z</time>
      </trkpt>
      <trkpt lat="45.80095" lon="4.85548">
        <ele>254.4</ele>
        <time>2016-03-01T12:06:07Z</time>
      </trkpt>
      <trkpt lat="45.80095" lon="4.85548">
        <ele>254.4</ele>
        <time>2016-03-01T12:06:07Z</time>
      </trkpt>
      <trkpt lat="45.80091" lon="4.85535">
        <ele>254.6</ele>
        <time>2016-03-01T12:06:11Z</time>
      </trkpt>
      <trkpt lat="45.8009" lon="4.85516">
        <ele>254.7</ele>
        <time>2016-03-01T12:06:16Z</time>
      </trkpt>
      <trkpt lat="45.80095" lon="4.85483">
        <ele>254.9</ele>
        <time>2016-03-01T12:06:23Z</time>
      </trkpt>
      <trkpt lat="45.80094" lon="4.85459">
        <ele>255</ele>
        <time>2016-03-01T12:06:28Z</time>
      </trkpt>
      <trkpt lat="45.80093" lon="4.8543">
        <ele>255</ele>
        <time>2016-03-01T12:06:34Z</time>
      </trkpt>
      <trkpt lat="45.80091" lon="4.85402">
        <ele>255</ele>
        <time>2016-03-01T12:06:40Z</time>
      </trkpt>
      <trkpt lat="45.8009" lon="4.8538">
        <ele>255</ele>
        <time>2016-03-01T12:06:45Z</time>
      </trkpt>
      <trkpt lat="45.80089" lon="4.85357">
        <ele>254.5</ele>
        <time>2016-03-01T12:06:50Z</time>
      </trkpt>
      <trkpt lat="45.80088" lon="4.85345">
        <ele>254.2</ele>
        <time>2016-03-01T12:06:53Z</time>
      </trkpt>
      <trkpt lat="45.80078" lon="4.85331">
        <ele>253.6</ele>
        <time>2016-03-01T12:06:58Z</time>
      </trkpt>
      <trkpt lat="45.80062" lon="4.85314">
        <ele>252.6</ele>
        <time>2016-03-01T12:07:04Z</time>
      </trkpt>
      <trkpt lat="45.80049" lon="4.853">
        <ele>251.6</ele>
        <time>2016-03-01T12:07:09Z</time>
      </trkpt>
      <trkpt lat="45.80036" lon="4.85286">
        <ele>250.3</ele>
        <time>2016-03-01T12:07:14Z</time>
      </trkpt>
      <trkpt lat="45.80023" lon="4.85271">
        <ele>248.9</ele>
        <time>2016-03-01T12:07:19Z</time>
      </trkpt>
      <trkpt lat="45.80012" lon="4.85257">
        <ele>247.7</ele>
        <time>2016-03-01T12:07:24Z</time>
      </trkpt>
      <trkpt lat="45.79997" lon="4.85238">
        <ele>246.3</ele>
        <time>2016-03-01T12:07:30Z</time>
      </trkpt>
      <trkpt lat="45.79985" lon="4.85224">
        <ele>245.5</ele>
        <time>2016-03-01T12:07:35Z</time>
      </trkpt>
      <trkpt lat="45.79974" lon="4.85211">
        <ele>244.8</ele>
        <time>2016-03-01T12:07:40Z</time>
      </trkpt>
      <trkpt lat="45.79962" lon="4.85198">
        <ele>244.6</ele>
        <time>2016-03-01T12:07:45Z</time>
      </trkpt>
      <trkpt lat="45.79944" lon="4.85171">
        <ele>245</ele>
        <time>2016-03-01T12:07:53Z</time>
      </trkpt>
      <trkpt lat="45.79928" lon="4.85151">
        <ele>245.2</ele>
        <time>2016-03-01T12:08:00Z</time>
      </trkpt>
      <trkpt lat="45.79913" lon="4.85132">
        <ele>245.2</ele>
        <time>2016-03-01T12:08:06Z</time>
      </trkpt>
      <trkpt lat="45.79903" lon="4.8512">
        <ele>245.1</ele>
        <time>2016-03-01T12:08:10Z</time>
      </trkpt>
      <trkpt lat="45.79887" lon="4.85098">
        <ele>245.2</ele>
        <time>2016-03-01T12:08:17Z</time>
      </trkpt>
      <trkpt lat="45.79875" lon="4.85083">
        <ele>245.5</ele>
        <time>2016-03-01T12:08:22Z</time>
      </trkpt>
      <trkpt lat="45.79864" lon="4.85068">
        <ele>245.9</ele>
        <time>2016-03-01T12:08:27Z</time>
      </trkpt>
      <trkpt lat="45.79848" lon="4.85046">
        <ele>246.2</ele>
        <time>2016-03-01T12:08:34Z</time>
      </trkpt>
      <trkpt lat="45.79839" lon="4.85033">
        <ele>246.2</ele>
        <time>2016-03-01T12:08:38Z</time>
      </trkpt>
      <trkpt lat="45.79823" lon="4.85014">
        <ele>246.5</ele>
        <time>2016-03-01T12:08:45Z</time>
      </trkpt>
      <trkpt lat="45.79813" lon="4.84999">
        <ele>246.9</ele>
        <time>2016-03-01T12:08:50Z</time>
      </trkpt>
      <trkpt lat="45.79802" lon="4.84984">
        <ele>247.6</ele>
        <time>2016-03-01T12:08:55Z</time>
      </trkpt>
      <trkpt lat="45.79788" lon="4.84964">
        <ele>248.9</ele>
        <time>2016-03-01T12:09:02Z</time>
      </trkpt>
      <trkpt lat="45.79778" lon="4.84949">
        <ele>249.6</ele>
        <time>2016-03-01T12:09:07Z</time>
      </trkpt>
      <trkpt lat="45.79768" lon="4.84936">
        <ele>250.1</ele>
        <time>2016-03-01T12:09:11Z</time>
      </trkpt>
      <trkpt lat="45.79755" lon="4.8492">
        <ele>251.3</ele>
        <time>2016-03-01T12:09:17Z</time>
      </trkpt>
      <trkpt lat="45.79742" lon="4.84903">
        <ele>252.8</ele>
        <time>2016-03-01T12:09:23Z</time>
      </trkpt>
      <trkpt lat="45.79731" lon="4.84889">
        <ele>254.5</ele>
        <time>2016-03-01T12:09:28Z</time>
      </trkpt>
      <trkpt lat="45.79721" lon="4.84876">
        <ele>256.3</ele>
        <time>2016-03-01T12:09:32Z</time>
      </trkpt>
      <trkpt lat="45.7971" lon="4.8486">
        <ele>256.9</ele>
        <time>2016-03-01T12:09:37Z</time>
      </trkpt>
      <trkpt lat="45.79696" lon="4.8484">
        <ele>257.5</ele>
        <time>2016-03-01T12:09:43Z</time>
      </trkpt>
      <trkpt lat="45.7968" lon="4.84841">
        <ele>259.6</ele>
        <time>2016-03-01T12:09:49Z</time>
      </trkpt>
      <trkpt lat="45.79668" lon="4.84854">
        <ele>261.9</ele>
        <time>2016-03-01T12:09:54Z</time>
      </trkpt>
      <trkpt lat="45.79659" lon="4.84874">
        <ele>264.5</ele>
        <time>2016-03-01T12:10:00Z</time>
      </trkpt>
      <trkpt lat="45.79654" lon="4.8489">
        <ele>264.2</ele>
        <time>2016-03-01T12:10:05Z</time>
      </trkpt>
      <trkpt lat="45.79657" lon="4.84906">
        <ele>262.9</ele>
        <time>2016-03-01T12:10:10Z</time>
      </trkpt>
      <trkpt lat="45.79666" lon="4.84921">
        <ele>260.9</ele>
        <time>2016-03-01T12:10:15Z</time>
      </trkpt>
      <trkpt lat="45.79676" lon="4.84937">
        <ele>258.5</ele>
        <time>2016-03-01T12:10:21Z</time>
      </trkpt>
      <trkpt lat="45.79683" lon="4.84951">
        <ele>256.8</ele>
        <time>2016-03-01T12:10:26Z</time>
      </trkpt>
      <trkpt lat="45.79687" lon="4.84974">
        <ele>255</ele>
        <time>2016-03-01T12:10:32Z</time>
      </trkpt>
      <trkpt lat="45.79696" lon="4.84996">
        <ele>252.4</ele>
        <time>2016-03-01T12:10:38Z</time>
      </trkpt>
      <trkpt lat="45.79707" lon="4.85016">
        <ele>249.7</ele>
        <time>2016-03-01T12:10:44Z</time>
      </trkpt>
      <trkpt lat="45.79717" lon="4.85031">
        <ele>248.3</ele>
        <time>2016-03-01T12:10:49Z</time>
      </trkpt>
      <trkpt lat="45.79717" lon="4.85034">
        <ele>248.1</ele>
        <time>2016-03-01T12:10:50Z</time>
      </trkpt>
      <trkpt lat="45.79715" lon="4.85049">
        <ele>248.1</ele>
        <time>2016-03-01T12:10:54Z</time>
      </trkpt>
      <trkpt lat="45.79713" lon="4.85073">
        <ele>249.3</ele>
        <time>2016-03-01T12:11:00Z</time>
      </trkpt>
      <trkpt lat="45.79707" lon="4.85098">
        <ele>250.8</ele>
        <time>2016-03-01T12:11:06Z</time>
      </trkpt>
      <trkpt lat="45.79707" lon="4.85098">
        <ele>250.8</ele>
        <time>2016-03-01T12:11:06Z</time>
      </trkpt>
      <trkpt lat="45.79702" lon="4.85116">
        <ele>252.3</ele>
        <time>2016-03-01T12:11:11Z</time>
      </trkpt>
      <trkpt lat="45.79698" lon="4.85135">
        <ele>253.2</ele>
        <time>2016-03-01T12:11:17Z</time>
      </trkpt>
      <trkpt lat="45.79693" lon="4.85154">
        <ele>253.7</ele>
        <time>2016-03-01T12:11:22Z</time>
      </trkpt>
      <trkpt lat="45.79687" lon="4.85171">
        <ele>254.5</ele>
        <time>2016-03-01T12:11:27Z</time>
      </trkpt>
      <trkpt lat="45.79674" lon="4.85193">
        <ele>256</ele>
        <time>2016-03-01T12:11:34Z</time>
      </trkpt>
      <trkpt lat="45.79665" lon="4.85202">
        <ele>257.1</ele>
        <time>2016-03-01T12:11:38Z</time>
      </trkpt>
      <trkpt lat="45.79651" lon="4.85214">
        <ele>258.5</ele>
        <time>2016-03-01T12:11:44Z</time>
      </trkpt>
      <trkpt lat="45.79638" lon="4.85224">
        <ele>259.3</ele>
        <time>2016-03-01T12:11:49Z</time>
      </trkpt>
      <trkpt lat="45.79624" lon="4.85231">
        <ele>260.2</ele>
        <time>2016-03-01T12:11:54Z</time>
      </trkpt>
      <trkpt lat="45.79609" lon="4.8524">
        <ele>260.9</ele>
        <time>2016-03-01T12:11:59Z</time>
      </trkpt>
      <trkpt lat="45.79591" lon="4.85251">
        <ele>261.9</ele>
        <time>2016-03-01T12:12:05Z</time>
      </trkpt>
      <trkpt lat="45.79574" lon="4.85265">
        <ele>262.6</ele>
        <time>2016-03-01T12:12:11Z</time>
      </trkpt>
      <trkpt lat="45.79553" lon="4.85282">
        <ele>263.5</ele>
        <time>2016-03-01T12:12:18Z</time>
      </trkpt>
      <trkpt lat="45.79535" lon="4.85297">
        <ele>263.5</ele>
        <time>2016-03-01T12:12:24Z</time>
      </trkpt>
      <trkpt lat="45.7952" lon="4.85309">
        <ele>262.9</ele>
        <time>2016-03-01T12:12:30Z</time>
      </trkpt>
      <trkpt lat="45.79508" lon="4.85323">
        <ele>262.3</ele>
        <time>2016-03-01T12:12:35Z</time>
      </trkpt>
      <trkpt lat="45.795" lon="4.85342">
        <ele>261.2</ele>
        <time>2016-03-01T12:12:40Z</time>
      </trkpt>
      <trkpt lat="45.79491" lon="4.85364">
        <ele>260.5</ele>
        <time>2016-03-01T12:12:45Z</time>
      </trkpt>
      <trkpt lat="45.7948" lon="4.85384">
        <ele>260.6</ele>
        <time>2016-03-01T12:12:51Z</time>
      </trkpt>
      <trkpt lat="45.79468" lon="4.85406">
        <ele>260.6</ele>
        <time>2016-03-01T12:12:58Z</time>
      </trkpt>
      <trkpt lat="45.79461" lon="4.85418">
        <ele>260.9</ele>
        <time>2016-03-01T12:13:02Z</time>
      </trkpt>
      <trkpt lat="45.79452" lon="4.85432">
        <ele>259.8</ele>
        <time>2016-03-01T12:13:07Z</time>
      </trkpt>
      <trkpt lat="45.79434" lon="4.85452">
        <ele>257.3</ele>
        <time>2016-03-01T12:13:15Z</time>
      </trkpt>
      <trkpt lat="45.7942" lon="4.85457">
        <ele>256.3</ele>
        <time>2016-03-01T12:13:20Z</time>
      </trkpt>
      <trkpt lat="45.794" lon="4.85461">
        <ele>254.8</ele>
        <time>2016-03-01T12:13:27Z</time>
      </trkpt>
      <trkpt lat="45.79382" lon="4.85464">
        <ele>253.7</ele>
        <time>2016-03-01T12:13:33Z</time>
      </trkpt>
      <trkpt lat="45.79367" lon="4.85458">
        <ele>253.3</ele>
        <time>2016-03-01T12:13:38Z</time>
      </trkpt>
      <trkpt lat="45.79353" lon="4.85448">
        <ele>252.6</ele>
        <time>2016-03-01T12:13:43Z</time>
      </trkpt>
      <trkpt lat="45.79335" lon="4.85435">
        <ele>251.5</ele>
        <time>2016-03-01T12:13:49Z</time>
      </trkpt>
      <trkpt lat="45.79321" lon="4.85424">
        <ele>250.4</ele>
        <time>2016-03-01T12:13:54Z</time>
      </trkpt>
      <trkpt lat="45.79301" lon="4.85408">
        <ele>248.7</ele>
        <time>2016-03-01T12:14:01Z</time>
      </trkpt>
      <trkpt lat="45.79282" lon="4.85392">
        <ele>246</ele>
        <time>2016-03-01T12:14:08Z</time>
      </trkpt>
      <trkpt lat="45.79266" lon="4.8538">
        <ele>243.1</ele>
        <time>2016-03-01T12:14:14Z</time>
      </trkpt>
      <trkpt lat="45.79253" lon="4.85379">
        <ele>240.7</ele>
        <time>2016-03-01T12:14:19Z</time>
      </trkpt>
      <trkpt lat="45.79239" lon="4.85384">
        <ele>238.1</ele>
        <time>2016-03-01T12:14:24Z</time>
      </trkpt>
      <trkpt lat="45.79225" lon="4.85388">
        <ele>235.6</ele>
        <time>2016-03-01T12:14:29Z</time>
      </trkpt>
      <trkpt lat="45.79211" lon="4.85392">
        <ele>233.3</ele>
        <time>2016-03-01T12:14:34Z</time>
      </trkpt>
      <trkpt lat="45.792" lon="4.85398">
        <ele>231.9</ele>
        <time>2016-03-01T12:14:38Z</time>
      </trkpt>
      <trkpt lat="45.79184" lon="4.85404">
        <ele>230.1</ele>
        <time>2016-03-01T12:14:43Z</time>
      </trkpt>
      <trkpt lat="45.79172" lon="4.85408">
        <ele>228.5</ele>
        <time>2016-03-01T12:14:47Z</time>
      </trkpt>
      <trkpt lat="45.79163" lon="4.85411">
        <ele>227.4</ele>
        <time>2016-03-01T12:14:50Z</time>
      </trkpt>
      <trkpt lat="45.79146" lon="4.85419">
        <ele>225.6</ele>
        <time>2016-03-01T12:14:56Z</time>
      </trkpt>
      <trkpt lat="45.79129" lon="4.85428">
        <ele>223.7</ele>
        <time>2016-03-01T12:15:02Z</time>
      </trkpt>
      <trkpt lat="45.79115" lon="4.85431">
        <ele>222.2</ele>
        <time>2016-03-01T12:15:07Z</time>
      </trkpt>
      <trkpt lat="45.79104" lon="4.85433">
        <ele>221</ele>
        <time>2016-03-01T12:15:11Z</time>
      </trkpt>
      <trkpt lat="45.79086" lon="4.8544">
        <ele>219.1</ele>
        <time>2016-03-01T12:15:17Z</time>
      </trkpt>
      <trkpt lat="45.79065" lon="4.85444">
        <ele>216.5</ele>
        <time>2016-03-01T12:15:24Z</time>
      </trkpt>
      <trkpt lat="45.79045" lon="4.8545">
        <ele>214.3</ele>
        <time>2016-03-01T12:15:30Z</time>
      </trkpt>
      <trkpt lat="45.79028" lon="4.85455">
        <ele>210.4</ele>
        <time>2016-03-01T12:15:35Z</time>
      </trkpt>
      <trkpt lat="45.79007" lon="4.85462">
        <ele>204.7</ele>
        <time>2016-03-01T12:15:41Z</time>
      </trkpt>
      <trkpt lat="45.78991" lon="4.85469">
        <ele>199.9</ele>
        <time>2016-03-01T12:15:46Z</time>
      </trkpt>
      <trkpt lat="45.78985" lon="4.85468">
        <ele>198.3</ele>
        <time>2016-03-01T12:15:48Z</time>
      </trkpt>
      <trkpt lat="45.78969" lon="4.85448">
        <ele>195.3</ele>
        <time>2016-03-01T12:15:54Z</time>
      </trkpt>
      <trkpt lat="45.78958" lon="4.85429">
        <ele>193.7</ele>
        <time>2016-03-01T12:15:59Z</time>
      </trkpt>
      <trkpt lat="45.78954" lon="4.85421">
        <ele>193.3</ele>
        <time>2016-03-01T12:16:01Z</time>
      </trkpt>
      <trkpt lat="45.78954" lon="4.85421">
        <ele>193.3</ele>
        <time>2016-03-01T12:16:01Z</time>
      </trkpt>
      <trkpt lat="45.78945" lon="4.85406">
        <ele>192.3</ele>
        <time>2016-03-01T12:16:05Z</time>
      </trkpt>
      <trkpt lat="45.78936" lon="4.85386">
        <ele>191.2</ele>
        <time>2016-03-01T12:16:10Z</time>
      </trkpt>
      <trkpt lat="45.78928" lon="4.85355">
        <ele>190.4</ele>
        <time>2016-03-01T12:16:17Z</time>
      </trkpt>
      <trkpt lat="45.7893" lon="4.85332">
        <ele>191.9</ele>
        <time>2016-03-01T12:16:22Z</time>
      </trkpt>
      <trkpt lat="45.78934" lon="4.85314">
        <ele>193.1</ele>
        <time>2016-03-01T12:16:26Z</time>
      </trkpt>
      <trkpt lat="45.78941" lon="4.85302">
        <ele>195</ele>
        <time>2016-03-01T12:16:30Z</time>
      </trkpt>
      <trkpt lat="45.78948" lon="4.85288">
        <ele>197.3</ele>
        <time>2016-03-01T12:16:35Z</time>
      </trkpt>
      <trkpt lat="45.78952" lon="4.85278">
        <ele>199</ele>
        <time>2016-03-01T12:16:40Z</time>
      </trkpt>
      <trkpt lat="45.78947" lon="4.85278">
        <ele>198</ele>
        <time>2016-03-01T12:16:43Z</time>
      </trkpt>
      <trkpt lat="45.78929" lon="4.85286">
        <ele>193.6</ele>
        <time>2016-03-01T12:16:49Z</time>
      </trkpt>
      <trkpt lat="45.78912" lon="4.85285">
        <ele>190.4</ele>
        <time>2016-03-01T12:16:55Z</time>
      </trkpt>
      <trkpt lat="45.789" lon="4.85285">
        <ele>187.9</ele>
        <time>2016-03-01T12:16:59Z</time>
      </trkpt>
      <trkpt lat="45.78887" lon="4.8529">
        <ele>184.7</ele>
        <time>2016-03-01T12:17:03Z</time>
      </trkpt>
      <trkpt lat="45.78871" lon="4.85294">
        <ele>181.4</ele>
        <time>2016-03-01T12:17:08Z</time>
      </trkpt>
      <trkpt lat="45.78858" lon="4.85299">
        <ele>179.4</ele>
        <time>2016-03-01T12:17:13Z</time>
      </trkpt>
      <trkpt lat="45.78855" lon="4.85301">
        <ele>178.9</ele>
        <time>2016-03-01T12:17:17Z</time>
      </trkpt>
      <trkpt lat="45.78855" lon="4.85301">
        <ele>178.9</ele>
        <time>2016-03-01T12:17:19Z</time>
      </trkpt>
    </trkseg>
  </trk>
</gpx>